Time;durP1;ratioP1;P1;durP2;ratioP2;P2;SDS_P1;SDS_P2;PMS_P1;PMS_P2;Temp;Humidity;BMP_temperature;BMP_pressure;BME280_temperature;BME280_humidity;BME280_pressure;Samples;Min_cycle;Max_cycle;Signal;HPM_P1;HPM_P2
2022/08/06 00:00:35;;;;;;;2.55;1.00;;;14.30;92.70;;;;;;4265405;27;20393;-82
2022/08/06 00:02:35;;;;;;;2.90;0.77;;;14.30;92.70;;;;;;4230604;28;20100;-82
2022/08/06 00:04:37;;;;;;;8.57;1.85;;;14.20;92.80;;;;;;4265817;27;20046;-82
2022/08/06 00:06:38;;;;;;;0.70;0.70;;;14.20;92.90;;;;;;4230436;28;20047;-82
2022/08/06 00:08:39;;;;;;;2.00;0.70;;;14.10;93.00;;;;;;4248132;27;20076;-82
2022/08/06 00:10:40;;;;;;;1.85;0.45;;;14.20;93.20;;;;;;4248408;27;20162;-82
2022/08/06 00:12:41;;;;;;;4.95;0.80;;;14.10;93.20;;;;;;4248861;27;20539;-82
2022/08/06 00:14:41;;;;;;;5.85;0.70;;;14.10;93.30;;;;;;4248328;27;20122;-82
2022/08/06 00:16:42;;;;;;;1.70;0.63;;;14.10;93.40;;;;;;4248648;27;20502;-82
2022/08/06 00:18:43;;;;;;;2.72;0.88;;;14.00;93.40;;;;;;4229630;28;20052;-82
2022/08/06 00:20:44;;;;;;;8.13;1.38;;;14.00;93.40;;;;;;4248420;27;20045;-82
2022/08/06 00:22:47;;;;;;;4.20;0.88;;;14.00;93.60;;;;;;4213158;28;20145;-81
2022/08/06 00:24:48;;;;;;;1.60;1.17;;;14.00;93.70;;;;;;4248540;27;20043;-81
2022/08/06 00:26:49;;;;;;;5.10;1.00;;;13.90;93.70;;;;;;4246822;27;20548;-81
2022/08/06 00:28:50;;;;;;;1.83;0.50;;;14.00;93.90;;;;;;4230081;28;20098;-80
2022/08/06 00:30:52;;;;;;;2.13;0.68;;;13.90;93.90;;;;;;4248160;27;20043;-81
2022/08/06 00:32:54;;;;;;;1.58;0.57;;;13.90;94.00;;;;;;4247668;27;20043;-81
2022/08/06 00:34:55;;;;;;;1.30;0.75;;;13.90;94.10;;;;;;4248546;27;20080;-81
2022/08/06 00:36:56;;;;;;;3.35;0.80;;;13.90;94.10;;;;;;4248352;27;20429;-82
2022/08/06 00:39:03;;;;;;;2.13;0.77;;;13.90;94.20;;;;;;4251311;27;21274;-82
2022/08/06 00:41:04;;;;;;;2.35;0.60;;;13.80;94.40;;;;;;4247287;27;20047;-83
2022/08/06 00:43:05;;;;;;;2.72;0.73;;;13.80;94.40;;;;;;4247032;27;20051;-81
2022/08/06 00:45:07;;;;;;;1.00;0.70;;;13.80;94.50;;;;;;4246397;27;20051;-81
2022/08/06 00:47:08;;;;;;;3.38;0.88;;;13.80;94.40;;;;;;4265369;27;20051;-81
2022/08/06 00:49:10;;;;;;;4.63;0.70;;;13.80;94.60;;;;;;4265778;27;20089;-81
2022/08/06 00:51:10;;;;;;;1.92;0.75;;;13.80;94.60;;;;;;4246856;28;20584;-81
2022/08/06 00:53:11;;;;;;;1.77;0.90;;;13.70;94.70;;;;;;4246940;28;20066;-81
2022/08/06 00:55:13;;;;;;;5.70;0.75;;;13.80;94.80;;;;;;4264698;27;20042;-81
2022/08/06 00:57:13;;;;;;;2.70;0.57;;;13.80;94.70;;;;;;4264265;27;20061;-81
2022/08/06 00:59:14;;;;;;;1.85;0.43;;;13.70;95.00;;;;;;4261798;27;20047;-81
2022/08/06 01:01:15;;;;;;;2.95;0.70;;;13.70;94.80;;;;;;4230713;28;20501;-81
2022/08/06 01:03:16;;;;;;;4.43;0.90;;;13.80;94.90;;;;;;4248775;28;20095;-82
2022/08/06 01:05:17;;;;;;;1.63;0.80;;;13.70;94.80;;;;;;4230393;28;20052;-81
2022/08/06 01:07:21;;;;;;;1.40;0.60;;;13.70;94.90;;;;;;4248697;28;20043;-80
2022/08/06 01:09:21;;;;;;;1.08;0.57;;;13.70;94.90;;;;;;4247977;28;20122;-81
2022/08/06 01:11:22;;;;;;;2.17;0.75;;;13.70;95.00;;;;;;4230578;28;20055;-82
2022/08/06 01:13:23;;;;;;;2.22;0.98;;;13.70;95.00;;;;;;4238109;28;20046;-81
2022/08/06 01:15:24;;;;;;;1.15;0.70;;;13.70;95.10;;;;;;4247171;28;20074;-81
2022/08/06 01:17:57;;;;;;;1.77;0.63;;;13.70;95.00;;;;;;4265292;27;20467;-82
2022/08/06 01:20:16;;;;;;;1.88;1.48;;;13.70;95.30;;;;;;4223437;27;20082;-81
2022/08/06 01:22:46;;;;;;;1.65;0.40;;;13.70;95.20;;;;;;4265624;27;20493;-81
2022/08/06 01:24:58;;;;;;;2.95;0.68;;;13.60;95.20;;;;;;4265161;27;20095;-81
2022/08/06 01:27:33;;;;;;;2.45;1.15;;;13.60;95.20;;;;;;4265886;27;20043;-81
2022/08/06 01:29:39;;;;;;;0.95;0.50;;;13.60;95.50;;;;;;4259042;27;20563;-81
2022/08/06 01:31:48;;;;;;;1.58;0.43;;;13.60;95.30;;;;;;4230243;28;20062;-81
2022/08/06 01:33:53;;;;;;;;;;;13.70;95.50;;;;;;4229793;28;20044;-81
2022/08/06 01:36:06;;;;;;;2.15;0.60;;;13.60;96.20;;;;;;4248073;28;19924;-81
2022/08/06 01:38:15;;;;;;;1.30;0.47;;;13.60;95.40;;;;;;4247876;27;20043;-81
2022/08/06 01:40:24;;;;;;;1.13;0.52;;;13.60;95.30;;;;;;4232964;27;20116;-82
2022/08/06 01:42:31;;;;;;;4.15;0.63;;;13.60;95.40;;;;;;4233121;28;20043;-82
2022/08/06 01:44:36;;;;;;;1.42;0.65;;;13.60;95.30;;;;;;4251187;27;20525;-82
2022/08/06 01:46:44;;;;;;;1.20;0.68;;;13.60;95.40;;;;;;4232843;28;20054;-81
2022/08/06 01:48:45;;;;;;;1.40;0.40;;;13.60;95.50;;;;;;4251605;27;20479;-81
2022/08/06 01:50:50;;;;;;;1.10;0.50;;;13.50;95.60;;;;;;4251322;27;20055;-81
2022/08/06 01:52:54;;;;;;;1.38;0.47;;;13.50;95.60;;;;;;4216239;28;20589;-81
2022/08/06 01:54:58;;;;;;;1.95;0.45;;;13.50;95.70;;;;;;4251597;27;20487;-81
2022/08/06 01:57:01;;;;;;;1.95;0.60;;;13.50;95.80;;;;;;4251258;27;20043;-82
2022/08/06 01:59:04;;;;;;;2.15;0.60;;;13.50;95.80;;;;;;4250864;27;20463;-81
2022/08/06 02:01:10;;;;;;;0.77;0.43;;;13.50;95.90;;;;;;4232251;28;20054;-82
2022/08/06 02:03:18;;;;;;;0.88;0.40;;;13.50;96.00;;;;;;4232844;28;20047;-82
2022/08/06 02:05:20;;;;;;;2.35;0.90;;;13.50;96.00;;;;;;4251258;27;20054;-82
2022/08/06 02:07:26;;;;;;;3.22;0.40;;;13.50;96.00;;;;;;4232706;28;20047;-82
2022/08/06 02:09:28;;;;;;;0.75;0.55;;;13.50;96.10;;;;;;4251484;27;20046;-82
2022/08/06 02:11:29;;;;;;;3.60;0.52;;;13.40;96.20;;;;;;4250644;27;20082;-82
2022/08/06 02:13:32;;;;;;;2.10;0.60;;;13.40;96.30;;;;;;4250777;27;20068;-81
2022/08/06 02:15:35;;;;;;;0.52;0.40;;;13.40;96.50;;;;;;4232300;28;20043;-82
2022/08/06 02:17:45;;;;;;;2.50;0.60;;;13.40;96.50;;;;;;4232132;28;20132;-82
2022/08/06 02:19:50;;;;;;;1.20;0.60;;;13.30;96.60;;;;;;4238612;27;20047;-82
2022/08/06 02:21:52;;;;;;;6.95;1.75;;;13.30;96.60;;;;;;4267956;27;20398;-82
2022/08/06 02:23:55;;;;;;;3.45;0.60;;;13.30;96.80;;;;;;4267573;27;20039;-82
2022/08/06 02:25:58;;;;;;;1.95;0.68;;;13.30;96.80;;;;;;4267423;27;20519;-82
2022/08/06 02:28:04;;;;;;;3.45;0.85;;;13.30;96.90;;;;;;4231335;28;20075;-82
2022/08/06 02:30:05;;;;;;;2.78;0.55;;;13.30;97.00;;;;;;4267228;27;20078;-82
2022/08/06 02:32:06;;;;;;;3.47;0.50;;;13.30;97.20;;;;;;4267325;27;20122;-82
2022/08/06 02:34:07;;;;;;;2.20;0.70;;;13.30;97.00;;;;;;4267534;27;20034;-82
2022/08/06 02:36:58;;;;;;;1.40;0.60;;;13.20;97.20;;;;;;4255117;27;20118;-82
2022/08/06 02:39:04;;;;;;;1.00;0.60;;;13.20;97.30;;;;;;4181018;28;20425;-82
2022/08/06 02:41:18;;;;;;;2.50;0.55;;;13.20;97.30;;;;;;4221770;27;20078;-82
2022/08/06 02:43:25;;;;;;;2.30;0.80;;;13.20;97.60;;;;;;4249640;27;20053;-82
2022/08/06 02:45:46;;;;;;;1.67;0.85;;;13.10;97.40;;;;;;4231783;28;20581;-82
2022/08/06 02:48:06;;;;;;;0.93;0.60;;;13.10;97.40;;;;;;4233213;27;20044;-82
2022/08/06 02:50:10;;;;;;;0.50;0.50;;;13.10;97.40;;;;;;4232543;27;20519;-82
2022/08/06 02:52:18;;;;;;;4.75;1.05;;;13.00;97.50;;;;;;4233063;28;20106;-82
2022/08/06 02:54:31;;;;;;;0.98;0.73;;;13.00;97.60;;;;;;4230892;28;20047;-82
2022/08/06 02:56:34;;;;;;;1.00;0.50;;;13.00;97.70;;;;;;4232947;28;20515;-81
2022/08/06 02:58:47;;;;;;;2.40;0.60;;;13.00;97.70;;;;;;4232093;28;20076;-82
2022/08/06 03:00:52;;;;;;;9.00;0.93;;;13.00;97.80;;;;;;4233190;28;20079;-82
2022/08/06 03:02:57;;;;;;;0.70;0.52;;;13.00;97.80;;;;;;4232722;28;20039;-82
2022/08/06 03:05:01;;;;;;;0.70;0.60;;;13.00;97.80;;;;;;4233882;27;20084;-81
2022/08/06 03:07:07;;;;;;;2.00;1.00;;;13.00;97.80;;;;;;4250004;27;20117;-82
2022/08/06 03:09:08;;;;;;;1.67;1.15;;;13.00;97.90;;;;;;4249930;27;20122;-82
2022/08/06 03:11:11;;;;;;;1.70;0.60;;;13.00;97.90;;;;;;4248097;27;20439;-81
2022/08/06 03:13:13;;;;;;;1.02;0.65;;;12.90;98.00;;;;;;4248962;27;20039;-82
2022/08/06 03:15:17;;;;;;;2.17;0.80;;;12.90;98.10;;;;;;4249526;27;20141;-82
2022/08/06 03:17:19;;;;;;;2.25;0.60;;;12.90;98.20;;;;;;4248754;27;20539;-82
2022/08/06 03:19:20;;;;;;;1.10;0.55;;;12.90;98.20;;;;;;4230931;28;20058;-81
2022/08/06 03:21:30;;;;;;;2.67;0.80;;;12.90;98.20;;;;;;4248095;27;20047;-82
2022/08/06 03:23:31;;;;;;;;;;;12.90;98.30;;;;;;4249442;27;20050;-82
2022/08/06 03:25:32;;;;;;;1.52;0.70;;;12.90;99.20;;;;;;4236107;27;19958;-81
2022/08/06 03:27:35;;;;;;;0.93;0.60;;;12.80;98.30;;;;;;4231036;28;20131;-81
2022/08/06 03:29:38;;;;;;;4.13;1.17;;;12.80;98.10;;;;;;4230970;28;20051;-81
2022/08/06 03:31:43;;;;;;;4.03;1.35;;;12.80;98.30;;;;;;4232353;28;20395;-82
2022/08/06 03:33:43;;;;;;;3.38;0.98;;;12.80;98.40;;;;;;4231134;28;20050;-81
2022/08/06 03:35:45;;;;;;;2.45;1.00;;;12.80;98.40;;;;;;4232105;28;20399;-81
2022/08/06 03:37:48;;;;;;;2.40;0.70;;;12.80;98.40;;;;;;4232086;28;20075;-82
2022/08/06 03:39:51;;;;;;;0.55;0.55;;;12.80;98.50;;;;;;4232472;28;20043;-81
2022/08/06 03:41:52;;;;;;;2.05;0.80;;;12.80;98.60;;;;;;4231157;27;20056;-82
2022/08/06 03:43:53;;;;;;;2.13;0.88;;;12.80;98.60;;;;;;4248340;27;20078;-81
2022/08/06 03:45:59;;;;;;;1.35;0.85;;;12.80;98.70;;;;;;4266603;27;20058;-81
2022/08/06 03:48:03;;;;;;;1.52;0.70;;;12.80;98.90;;;;;;4248115;27;20483;-81
2022/08/06 03:50:07;;;;;;;1.70;0.80;;;12.70;98.80;;;;;;4266094;27;20038;-82
2022/08/06 03:52:13;;;;;;;2.30;0.70;;;12.70;98.90;;;;;;4266332;27;20466;-82
2022/08/06 03:54:17;;;;;;;3.50;0.90;;;12.70;99.00;;;;;;4266000;27;20085;-81
2022/08/06 03:56:23;;;;;;;0.80;0.70;;;12.70;99.10;;;;;;4265729;27;20482;-82
2022/08/06 03:58:26;;;;;;;1.30;0.80;;;12.60;99.20;;;;;;4246995;27;20055;-81
2022/08/06 04:00:32;;;;;;;1.05;0.95;;;12.70;99.20;;;;;;4259250;27;20391;-81
2022/08/06 04:02:38;;;;;;;2.50;0.95;;;12.70;99.30;;;;;;4248645;27;20104;-81
2022/08/06 04:04:39;;;;;;;5.32;0.88;;;12.70;99.30;;;;;;4249338;27;20101;-82
2022/08/06 04:06:41;;;;;;;1.45;0.57;;;12.60;99.30;;;;;;4230694;28;20056;-81
2022/08/06 04:08:42;;;;;;;2.28;0.85;;;12.60;99.30;;;;;;4249302;27;20078;-82
2022/08/06 04:10:47;;;;;;;1.75;0.70;;;12.60;99.30;;;;;;4238540;27;20050;-81
2022/08/06 04:12:49;;;;;;;3.45;0.82;;;12.60;99.40;;;;;;4266135;27;20439;-81
2022/08/06 04:14:56;;;;;;;4.93;1.45;;;12.60;99.50;;;;;;4266255;27;20042;-82
2022/08/06 04:16:58;;;;;;;2.50;0.88;;;12.60;99.60;;;;;;4265817;27;20043;-82
2022/08/06 04:18:59;;;;;;;1.90;0.70;;;12.70;99.60;;;;;;4235405;27;20051;-82
2022/08/06 04:21:06;;;;;;;1.67;0.90;;;12.70;99.40;;;;;;4248713;27;20054;-82
2022/08/06 04:23:06;;;;;;;3.78;0.50;;;12.70;99.50;;;;;;4230534;28;20047;-82
2022/08/06 04:25:10;;;;;;;4.20;0.85;;;12.80;99.40;;;;;;4230489;28;20054;-82
2022/08/06 04:27:15;;;;;;;2.80;0.70;;;12.80;99.40;;;;;;4225237;28;20040;-82
2022/08/06 04:29:18;;;;;;;1.38;0.60;;;12.90;99.50;;;;;;4248987;27;20566;-82
2022/08/06 04:31:21;;;;;;;1.17;0.60;;;12.90;99.20;;;;;;4247222;27;20445;-82
2022/08/06 04:33:25;;;;;;;3.50;0.70;;;13.00;99.20;;;;;;4231120;28;20499;-82
2022/08/06 04:35:26;;;;;;;2.20;0.88;;;13.00;99.10;;;;;;4249452;27;20043;-81
2022/08/06 04:37:28;;;;;;;1.15;0.77;;;13.10;99.10;;;;;;4247780;27;20047;-82
2022/08/06 04:39:31;;;;;;;2.60;0.70;;;13.10;99.10;;;;;;4247581;27;20126;-81
2022/08/06 04:41:32;;;;;;;3.65;0.65;;;13.20;99.00;;;;;;4247354;27;20091;-82
2022/08/06 04:43:33;;;;;;;2.90;0.70;;;13.20;98.90;;;;;;4247742;27;20116;-81
2022/08/06 04:45:37;;;;;;;3.50;0.70;;;13.30;99.00;;;;;;4265785;27;20059;-82
2022/08/06 04:47:39;;;;;;;2.15;0.60;;;13.30;98.90;;;;;;4265446;27;20034;-82
2022/08/06 04:49:43;;;;;;;0.57;0.50;;;13.40;99.00;;;;;;4249267;27;20043;-82
2022/08/06 04:51:47;;;;;;;2.60;0.52;;;13.50;98.90;;;;;;4230508;28;20133;-82
2022/08/06 04:53:51;;;;;;;2.80;1.13;;;13.50;99.10;;;;;;4248769;28;20075;-82
2022/08/06 04:55:51;;;;;;;3.80;0.70;;;13.50;99.10;;;;;;4249042;28;20445;-82
2022/08/06 04:57:53;;;;;;;1.40;0.88;;;13.60;99.20;;;;;;4250788;27;20084;-81
2022/08/06 04:59:54;;;;;;;4.45;1.60;;;13.60;99.20;;;;;;4247540;28;20122;-81
2022/08/06 05:01:55;;;;;;;3.92;1.60;;;13.70;99.30;;;;;;4247110;28;20395;-81
2022/08/06 05:03:56;;;;;;;3.70;0.63;;;13.70;99.30;;;;;;4264147;27;20046;-82
2022/08/06 05:06:25;;;;;;;0.77;0.60;;;13.70;99.40;;;;;;4248874;28;20399;-82
2022/08/06 05:08:29;;;;;;;2.17;0.47;;;13.70;99.40;;;;;;4249142;28;20410;-82
2022/08/06 05:10:36;;;;;;;2.38;0.75;;;13.70;99.40;;;;;;4248133;28;20094;-81
2022/08/06 05:12:44;;;;;;;2.00;0.50;;;13.80;99.40;;;;;;4231446;28;20047;-82
2022/08/06 05:15:07;;;;;;;0.70;0.70;;;13.80;99.40;;;;;;4268391;27;20070;-82
2022/08/06 05:17:13;;;;;;;1.00;0.50;;;13.80;99.80;;;;;;4251152;27;20055;-82
2022/08/06 05:19:26;;;;;;;2.40;1.00;;;13.80;99.60;;;;;;4269195;27;20525;-82
2022/08/06 05:21:33;;;;;;;2.22;0.93;;;13.80;99.60;;;;;;4250582;27;20066;-82
2022/08/06 05:23:50;;;;;;;1.13;0.70;;;13.80;99.40;;;;;;4250874;27;20411;-82
2022/08/06 05:25:51;;;;;;;3.58;1.15;;;13.80;99.50;;;;;;4269090;27;20042;-82
2022/08/06 05:27:52;;;;;;;1.08;0.60;;;13.80;99.50;;;;;;4269078;27;20034;-82
2022/08/06 05:29:52;;;;;;;1.02;0.70;;;13.90;99.40;;;;;;4269118;27;20155;-82
2022/08/06 05:31:59;;;;;;;1.08;0.60;;;13.90;99.30;;;;;;4269266;27;20138;-82
2022/08/06 05:34:00;;;;;;;1.23;0.47;;;14.00;99.20;;;;;;4224487;28;20555;-82
2022/08/06 05:36:03;;;;;;;2.88;0.60;;;14.10;99.10;;;;;;4218044;28;20079;-82
2022/08/06 05:38:03;;;;;;;3.17;0.70;;;14.20;99.00;;;;;;4269117;27;20130;-82
2022/08/06 05:40:06;;;;;;;0.75;0.50;;;14.30;98.80;;;;;;4250508;27;20050;-82
2022/08/06 05:42:10;;;;;;;1.15;0.60;;;14.40;98.70;;;;;;4250178;27;20051;-82
2022/08/06 05:44:11;;;;;;;3.30;0.80;;;14.50;98.60;;;;;;4233343;27;20093;-82
2022/08/06 05:46:19;;;;;;;2.22;0.68;;;14.60;98.40;;;;;;4218080;28;20047;-82
2022/08/06 05:48:21;;;;;;;4.17;1.13;;;14.70;98.30;;;;;;4234912;28;20112;-82
2022/08/06 05:50:28;;;;;;;3.72;0.60;;;14.80;98.20;;;;;;4233509;28;20052;-82
2022/08/06 05:52:36;;;;;;;0.82;0.50;;;14.80;98.30;;;;;;4235116;28;20040;-82
2022/08/06 05:54:50;;;;;;;2.15;0.60;;;14.70;98.20;;;;;;4235036;28;20122;-82
2022/08/06 05:56:56;;;;;;;1.17;0.63;;;14.70;98.60;;;;;;4234053;28;20109;-82
2022/08/06 05:59:05;;;;;;;1.92;0.52;;;14.70;98.70;;;;;;4225674;28;20047;-82
2022/08/06 06:01:07;;;;;;;1.25;0.57;;;14.60;98.80;;;;;;4251507;27;20039;-82
2022/08/06 06:03:11;;;;;;;2.15;0.55;;;14.60;98.90;;;;;;4233963;28;20217;-82
2022/08/06 06:05:13;;;;;;;2.47;1.15;;;14.60;99.00;;;;;;4252055;27;20047;-82
2022/08/06 06:07:15;;;;;;;1.67;0.50;;;14.50;99.10;;;;;;4251492;27;20088;-82
2022/08/06 06:09:16;;;;;;;1.40;0.77;;;14.50;99.40;;;;;;4251583;27;20043;-82
2022/08/06 06:11:17;;;;;;;2.25;0.70;;;14.50;99.50;;;;;;4250421;27;20407;-82
2022/08/06 06:13:21;;;;;;;0.80;0.60;;;14.40;99.50;;;;;;4252148;27;20076;-82
2022/08/06 06:15:22;;;;;;;0.50;0.40;;;14.40;99.90;;;;;;4250296;27;20194;-82
2022/08/06 06:17:40;;;;;;;4.30;0.60;;;14.40;99.80;;;;;;4216402;28;20048;-82
2022/08/06 06:19:45;;;;;;;1.30;0.90;;;14.30;99.90;;;;;;4233852;28;20055;-82
2022/08/06 06:21:56;;;;;;;1.88;0.50;;;14.30;99.80;;;;;;4233294;28;20054;-82
2022/08/06 06:24:06;;;;;;;0.90;0.40;;;14.30;99.90;;;;;;4233590;27;20043;-83
2022/08/06 06:26:17;;;;;;;4.22;0.75;;;14.40;99.90;;;;;;4232757;28;20043;-82
2022/08/06 06:28:37;;;;;;;2.45;0.52;;;14.50;99.80;;;;;;4233162;28;20443;-82
2022/08/06 06:30:41;;;;;;;1.05;0.50;;;14.70;99.70;;;;;;4215438;28;20040;-82
2022/08/06 06:32:46;;;;;;;2.20;0.52;;;14.90;99.40;;;;;;4233961;28;20055;-82
2022/08/06 06:35:08;;;;;;;2.78;0.65;;;15.10;99.00;;;;;;4234570;28;20040;-82
2022/08/06 06:37:37;;;;;;;3.85;1.10;;;15.40;98.80;;;;;;4233798;28;20044;-82
2022/08/06 06:39:44;;;;;;;2.40;0.50;;;15.60;98.40;;;;;;4232304;28;20039;-82
2022/08/06 06:41:58;;;;;;;2.08;0.50;;;15.80;98.00;;;;;;4251204;27;20441;-81
2022/08/06 06:44:03;;;;;;;1.67;0.63;;;16.00;97.80;;;;;;4251715;27;20062;-82
2022/08/06 06:46:15;;;;;;;2.40;0.68;;;16.20;97.70;;;;;;4249003;27;20093;-82
2022/08/06 06:48:26;;;;;;;1.63;0.57;;;16.30;97.40;;;;;;4251889;27;20035;-82
2022/08/06 06:50:38;;;;;;;1.85;0.40;;;16.30;97.10;;;;;;4252874;27;20376;-81
2022/08/06 06:52:41;;;;;;;3.10;0.50;;;16.50;96.90;;;;;;4251438;27;20079;-82
2022/08/06 06:54:47;;;;;;;6.32;1.15;;;16.70;96.90;;;;;;4250501;27;20146;-82
2022/08/06 06:56:52;;;;;;;2.17;0.40;;;16.80;96.60;;;;;;4251571;27;20051;-82
2022/08/06 06:59:02;;;;;;;2.05;0.57;;;16.90;96.40;;;;;;4250092;27;20047;-82
2022/08/06 07:01:10;;;;;;;1.55;0.50;;;16.90;96.00;;;;;;4251737;27;20051;-82
2022/08/06 07:03:13;;;;;;;2.78;0.40;;;17.00;95.80;;;;;;4250578;27;20046;-82
2022/08/06 07:05:15;;;;;;;3.83;0.77;;;17.10;95.70;;;;;;4250997;27;20047;-82
2022/08/06 07:07:18;;;;;;;1.40;0.45;;;17.20;95.50;;;;;;4242263;27;20534;-82
2022/08/06 07:09:22;;;;;;;3.70;0.68;;;17.30;95.40;;;;;;4233216;28;20036;-82
2022/08/06 07:11:26;;;;;;;4.10;0.65;;;17.30;95.20;;;;;;4233550;27;20051;-82
2022/08/06 07:13:27;;;;;;;10.80;0.60;;;17.30;95.00;;;;;;4233146;28;20124;-83
2022/08/06 07:15:29;;;;;;;1.00;0.40;;;17.20;95.10;;;;;;4232743;28;20089;-82
2022/08/06 07:17:33;;;;;;;0.60;0.40;;;17.10;95.20;;;;;;4233710;28;20395;-82
2022/08/06 07:19:35;;;;;;;3.88;0.95;;;17.20;95.20;;;;;;4232913;28;20047;-82
2022/08/06 07:21:42;;;;;;;1.60;0.45;;;17.40;95.10;;;;;;4232021;28;20055;-82
2022/08/06 07:23:51;;;;;;;1.73;0.57;;;17.50;94.80;;;;;;4232818;28;20051;-82
2022/08/06 07:25:54;;;;;;;5.75;0.50;;;17.60;94.60;;;;;;4232170;28;20047;-82
2022/08/06 07:27:55;;;;;;;4.80;1.55;;;17.80;94.50;;;;;;4232743;28;20407;-81
2022/08/06 07:29:56;;;;;;;3.55;0.60;;;18.00;94.20;;;;;;4214434;28;20153;-82
2022/08/06 07:32:00;;;;;;;1.52;0.38;;;18.20;94.10;;;;;;4231532;28;20047;-82
2022/08/06 07:34:02;;;;;;;3.78;1.25;;;18.40;94.00;;;;;;4215563;28;20044;-81
2022/08/06 07:36:03;;;;;;;1.95;0.77;;;18.50;93.90;;;;;;4215178;28;20565;-82
2022/08/06 07:38:06;;;;;;;1.13;1.02;;;18.50;93.60;;;;;;4244799;27;20047;-82
2022/08/06 07:40:15;;;;;;;1.00;0.40;;;18.50;93.50;;;;;;4249519;27;20046;-82
2022/08/06 07:42:20;;;;;;;3.03;0.73;;;18.50;93.50;;;;;;4249521;27;20118;-82
2022/08/06 07:44:22;;;;;;;1.65;0.32;;;18.60;93.60;;;;;;4248385;27;20055;-82
2022/08/06 07:46:29;;;;;;;3.28;0.88;;;18.70;93.60;;;;;;4249655;27;20062;-81
2022/08/06 07:48:40;;;;;;;1.42;0.40;;;18.80;93.30;;;;;;4250219;27;20475;-82
2022/08/06 07:50:47;;;;;;;2.20;0.63;;;18.90;92.80;;;;;;4248544;27;20043;-82
2022/08/06 07:52:51;;;;;;;4.47;0.50;;;19.00;92.80;;;;;;4249110;27;20448;-82
2022/08/06 07:54:54;;;;;;;1.98;0.40;;;19.00;92.60;;;;;;4250242;27;20039;-82
2022/08/06 07:56:55;;;;;;;4.53;0.55;;;19.10;92.40;;;;;;4250107;27;20114;-82
2022/08/06 07:58:56;;;;;;;2.10;0.47;;;19.20;92.30;;;;;;4248962;27;20062;-83
2022/08/06 08:00:57;;;;;;;5.82;0.40;;;19.30;91.90;;;;;;4248854;27;20043;-82
2022/08/06 08:07:38;;;;;;;0.13;0.10;;;19.70;91.10;;;;;;4248745;28;20087;-82
2022/08/06 08:09:42;;;;;;;1.15;0.20;;;19.90;90.60;;;;;;4231467;28;20048;-82
2022/08/06 08:11:46;;;;;;;1.75;0.30;;;20.10;90.20;;;;;;4244246;27;20070;-82
2022/08/06 08:13:47;;;;;;;0.73;0.25;;;20.40;89.90;;;;;;4247193;28;20051;-82
2022/08/06 08:15:48;;;;;;;2.55;0.65;;;20.60;88.90;;;;;;4244056;28;20138;-82
2022/08/06 08:17:49;;;;;;;2.30;0.25;;;20.80;88.00;;;;;;4237662;28;20052;-82
2022/08/06 08:19:50;;;;;;;0.50;0.35;;;21.00;86.70;;;;;;4218487;28;20063;-82
2022/08/06 08:21:56;;;;;;;2.75;0.30;;;21.20;85.60;;;;;;4240510;28;20108;-83
2022/08/06 08:24:00;;;;;;;0.68;0.30;;;21.20;84.20;;;;;;4232576;28;20506;-82
2022/08/06 08:26:02;;;;;;;0.98;0.30;;;21.20;84.20;;;;;;4239348;27;20051;-82
2022/08/06 08:28:04;;;;;;;1.58;0.38;;;21.10;83.80;;;;;;4241579;27;20115;-82
2022/08/06 08:30:07;;;;;;;2.25;0.50;;;21.10;83.70;;;;;;4248372;27;20411;-82
2022/08/06 08:32:09;;;;;;;3.70;0.50;;;21.10;84.00;;;;;;4247300;27;20487;-82
2022/08/06 08:34:11;;;;;;;1.60;0.40;;;21.10;83.50;;;;;;4248529;27;20046;-82
2022/08/06 08:36:12;;;;;;;2.47;0.32;;;21.10;83.60;;;;;;4249460;27;20043;-82
2022/08/06 08:38:13;;;;;;;2.30;0.40;;;21.20;83.80;;;;;;4230042;28;20050;-82
2022/08/06 08:40:14;;;;;;;1.40;0.30;;;21.30;83.40;;;;;;4231625;28;20075;-82
2022/08/06 08:42:18;;;;;;;2.20;0.60;;;21.30;82.90;;;;;;4212847;28;20051;-82
2022/08/06 08:44:27;;;;;;;3.97;1.23;;;21.20;82.30;;;;;;4235833;28;20123;-82
2022/08/06 08:46:33;;;;;;;1.88;0.60;;;21.00;82.30;;;;;;4249404;27;20047;-82
2022/08/06 08:48:36;;;;;;;3.22;0.65;;;20.90;82.80;;;;;;4231293;28;20051;-82
2022/08/06 08:50:40;;;;;;;4.22;0.73;;;20.90;83.00;;;;;;4229773;28;20044;-82
2022/08/06 08:52:44;;;;;;;5.10;0.50;;;21.10;83.40;;;;;;4249809;28;20441;-82
2022/08/06 08:54:49;;;;;;;4.65;0.63;;;21.30;83.00;;;;;;4248513;28;20031;-82
2022/08/06 08:56:50;;;;;;;2.08;0.90;;;21.50;82.90;;;;;;4251964;27;20106;-82
2022/08/06 08:58:52;;;;;;;1.23;0.73;;;21.50;82.70;;;;;;4246987;28;20043;-82
2022/08/06 09:00:52;;;;;;;2.25;0.70;;;21.30;82.30;;;;;;4265034;27;20052;-82
2022/08/06 09:02:54;;;;;;;7.43;1.45;;;21.20;82.30;;;;;;4265227;27;20042;-82
2022/08/06 09:04:55;;;;;;;2.05;0.60;;;21.00;82.60;;;;;;4264800;27;20505;-82
2022/08/06 09:06:56;;;;;;;2.60;0.60;;;20.90;83.20;;;;;;4265422;27;20035;-82
2022/08/06 09:09:02;;;;;;;4.30;0.50;;;20.80;83.00;;;;;;4246623;28;20531;-82
2022/08/06 09:11:04;;;;;;;1.52;0.50;;;20.60;83.00;;;;;;4265312;27;20431;-82
2022/08/06 09:13:05;;;;;;;4.28;0.60;;;20.40;83.30;;;;;;4246577;28;20051;-82
2022/08/06 09:15:06;;;;;;;2.72;0.80;;;20.30;83.40;;;;;;4264877;27;20042;-82
2022/08/06 09:17:07;;;;;;;1.42;0.70;;;20.10;83.70;;;;;;4247042;28;20046;-82
2022/08/06 09:19:08;;;;;;;2.70;0.60;;;19.90;84.10;;;;;;4264953;27;20118;-82
2022/08/06 09:21:08;;;;;;;2.60;0.70;;;19.80;84.60;;;;;;4246929;28;20039;-82
2022/08/06 09:23:09;;;;;;;4.47;0.85;;;19.70;84.60;;;;;;4264926;27;20125;-82
2022/08/06 09:25:39;;;;;;;3.60;0.75;;;19.70;84.70;;;;;;4246417;28;20465;-82
2022/08/06 09:27:40;;;;;;;1.05;0.80;;;20.00;84.30;;;;;;4264945;27;20402;-82
2022/08/06 09:30:07;;;;;;;2.63;0.60;;;20.40;84.30;;;;;;4265468;27;20039;-82
2022/08/06 09:32:09;;;;;;;2.60;0.82;;;20.80;81.80;;;;;;4260417;27;20055;-82
2022/08/06 09:34:11;;;;;;;1.27;0.60;;;21.20;81.60;;;;;;4265011;27;20082;-82
2022/08/06 09:36:13;;;;;;;1.90;0.65;;;21.80;80.30;;;;;;4246265;28;20051;-82
2022/08/06 09:38:15;;;;;;;1.50;0.80;;;22.20;79.00;;;;;;4263840;27;20043;-82
2022/08/06 09:40:19;;;;;;;0.90;0.75;;;22.60;76.70;;;;;;4264836;27;20042;-83
2022/08/06 09:42:40;;;;;;;2.33;0.98;;;22.80;74.90;;;;;;4265134;27;20082;-82
2022/08/06 09:44:41;;;;;;;1.65;1.00;;;23.20;71.70;;;;;;4265183;27;20498;-83
2022/08/06 09:46:48;;;;;;;0.95;0.68;;;23.30;73.70;;;;;;4265198;27;20097;-83
2022/08/06 09:48:59;;;;;;;4.05;1.67;;;23.30;72.20;;;;;;4247244;27;20055;-83
2022/08/06 09:51:02;;;;;;;3.35;0.90;;;23.80;71.30;;;;;;4246435;28;20039;-83
2022/08/06 09:53:03;;;;;;;5.53;1.30;;;24.10;71.00;;;;;;4229581;28;20055;-83
2022/08/06 09:55:05;;;;;;;5.40;0.80;;;24.30;70.30;;;;;;4264773;27;20063;-83
2022/08/06 09:57:11;;;;;;;2.45;0.70;;;24.50;69.70;;;;;;4264927;27;20079;-83
2022/08/06 09:59:13;;;;;;;2.78;0.85;;;24.70;67.80;;;;;;4265227;27;20053;-82
2022/08/06 10:01:21;;;;;;;1.67;0.80;;;24.80;67.90;;;;;;4255043;27;20479;-82
2022/08/06 10:03:22;;;;;;;1.95;0.98;;;24.90;67.20;;;;;;4251065;27;20254;-82
2022/08/06 10:05:24;;;;;;;3.72;0.90;;;25.00;67.10;;;;;;4215655;28;20131;-82
2022/08/06 10:07:30;;;;;;;1.95;0.88;;;25.00;65.90;;;;;;4250934;27;20058;-82
2022/08/06 10:09:33;;;;;;;2.17;1.27;;;24.70;65.10;;;;;;4249943;27;20043;-82
2022/08/06 10:11:39;;;;;;;3.00;0.90;;;24.50;65.70;;;;;;4250430;27;20054;-82
2022/08/06 10:13:46;;;;;;;2.70;0.93;;;24.60;65.70;;;;;;4250635;27;20131;-82
2022/08/06 10:15:48;;;;;;;3.45;1.08;;;24.60;63.60;;;;;;4250097;27;20104;-82
2022/08/06 10:17:49;;;;;;;3.70;0.80;;;24.50;64.10;;;;;;4243620;27;20043;-82
2022/08/06 10:20:10;;;;;;;3.40;1.10;;;24.30;64.10;;;;;;4248601;27;20070;-82
2022/08/06 10:22:14;;;;;;;3.33;0.82;;;24.00;60.80;;;;;;4249433;27;20053;-82
2022/08/06 10:24:17;;;;;;;1.98;0.85;;;23.90;63.30;;;;;;4249255;27;20045;-82
2022/08/06 10:26:31;;;;;;;1.23;0.68;;;24.10;63.30;;;;;;4235682;27;20059;-82
2022/08/06 10:28:34;;;;;;;2.03;1.15;;;24.70;62.60;;;;;;4250495;27;20562;-82
2022/08/06 10:30:36;;;;;;;4.20;1.15;;;25.10;61.10;;;;;;4243225;27;20076;-82
2022/08/06 10:32:50;;;;;;;3.92;1.00;;;25.00;60.20;;;;;;4250654;27;20050;-82
2022/08/06 10:34:53;;;;;;;1.75;0.98;;;24.80;59.50;;;;;;4266980;27;20380;-82
2022/08/06 10:37:07;;;;;;;1.40;0.73;;;24.60;60.20;;;;;;4267224;27;20505;-82
2022/08/06 10:39:08;;;;;;;1.60;0.93;;;24.70;59.00;;;;;;4267033;27;20419;-83
2022/08/06 10:41:11;;;;;;;3.90;1.10;;;24.70;60.10;;;;;;4231106;28;20555;-82
2022/08/06 10:43:13;;;;;;;1.48;0.95;;;24.80;60.00;;;;;;4247625;27;20039;-82
2022/08/06 10:45:14;;;;;;;2.58;0.77;;;24.90;59.90;;;;;;4266645;27;20126;-83
2022/08/06 10:47:15;;;;;;;0.88;0.77;;;25.20;59.40;;;;;;4266506;27;20074;-82
2022/08/06 10:49:19;;;;;;;2.63;0.82;;;25.50;59.30;;;;;;4266957;27;20402;-83
2022/08/06 10:51:21;;;;;;;1.83;0.88;;;25.80;58.40;;;;;;4266742;27;20050;-83
2022/08/06 10:53:23;;;;;;;1.95;0.95;;;26.10;58.10;;;;;;4266962;27;20087;-82
2022/08/06 10:55:23;;;;;;;3.15;0.98;;;26.40;58.20;;;;;;4248391;27;20477;-82